Union Center, Wisconsin
Current Conditions -  °F | °C
As of 1:58 PM on Thursday 23 Oct 2014 (Local Time) from KVOK Reporting Station
Drizzle Drizzle  
Wind Chill: 44°   Ceiling: 1000
Heat Index: 46°   Visibility: 3mi
Dew Point: 46°   Wind: 5mph
Humidity: 100%   Direction: 190°S
Pressure: 30.04"   Gusts: NA
Location:  43.69°N, 90.27°W
Report Text: KVOK 231858Z 19004KT 3SM -DZ BR SCT005 OVC010 08/08 A3004 RMK AO2A SCT005 V BKN SLP183
Loading
Personal Weather Stations






























Interactive Weather Map
Tropical Storm Tracking
New forecast layout! Learn more

10-Day Weather Forecast

Advertisements
Track Severe Weather on mobile